sensor_id;sensor_type;location;lat;lon;timestamp;pressure;altitude;pressure_sealevel;temperature;humidity
40356;BME280;26061;50.044;19.930;2023-03-23T00:02:26;60187.28;;;-145.63;100.00
40356;BME280;26061;50.044;19.930;2023-03-23T00:04:52;60187.28;;;-145.63;100.00
40356;BME280;26061;50.044;19.930;2023-03-23T00:07:23;60187.28;;;-145.63;100.00
40356;BME280;26061;50.044;19.930;2023-03-23T00:09:54;60187.28;;;-145.63;100.00
40356;BME280;26061;50.044;19.930;2023-03-23T00:12:21;60187.28;;;-145.63;100.00
40356;BME280;26061;50.044;19.930;2023-03-23T00:14:59;60187.28;;;-145.63;100.00
40356;BME280;26061;50.044;19.930;2023-03-23T00:17:27;60187.28;;;-145.63;100.00
40356;BME280;26061;50.044;19.930;2023-03-23T00:19:53;60187.28;;;-145.63;100.00
40356;BME280;26061;50.044;19.930;2023-03-23T00:23:18;60187.28;;;-145.63;100.00
40356;BME280;26061;50.044;19.930;2023-03-23T00:25:49;60187.28;;;-145.63;100.00
40356;BME280;26061;50.044;19.930;2023-03-23T00:28:16;60187.28;;;-145.63;100.00
40356;BME280;26061;50.044;19.930;2023-03-23T00:30:42;60187.28;;;-145.63;100.00
40356;BME280;26061;50.044;19.930;2023-03-23T00:34:09;60187.28;;;-145.63;100.00
40356;BME280;26061;50.044;19.930;2023-03-23T00:36:37;60187.28;;;-145.63;100.00
40356;BME280;26061;50.044;19.930;2023-03-23T00:39:08;60187.28;;;-145.63;100.00
40356;BME280;26061;50.044;19.930;2023-03-23T00:42:31;60187.28;;;-145.63;100.00
40356;BME280;26061;50.044;19.930;2023-03-23T00:46:00;60187.28;;;-145.63;100.00
40356;BME280;26061;50.044;19.930;2023-03-23T00:49:25;60187.28;;;-145.63;100.00
40356;BME280;26061;50.044;19.930;2023-03-23T00:52:54;60187.28;;;-145.63;100.00
40356;BME280;26061;50.044;19.930;2023-03-23T00:56:20;60187.28;;;-145.63;100.00
40356;BME280;26061;50.044;19.930;2023-03-23T00:58:46;60187.28;;;-145.63;100.00
40356;BME280;26061;50.044;19.930;2023-03-23T01:02:10;60187.28;;;-145.63;100.00
40356;BME280;26061;50.044;19.930;2023-03-23T01:05:36;60187.28;;;-145.63;100.00
40356;BME280;26061;50.044;19.930;2023-03-23T01:09:02;60187.28;;;-145.63;100.00
40356;BME280;26061;50.044;19.930;2023-03-23T01:12:27;60187.28;;;-145.63;100.00
40356;BME280;26061;50.044;19.930;2023-03-23T01:15:51;60187.28;;;-145.63;100.00
40356;BME280;26061;50.044;19.930;2023-03-23T01:18:43;60187.28;;;-145.63;100.00
40356;BME280;26061;50.044;19.930;2023-03-23T01:21:47;60187.28;;;-145.63;100.00
40356;BME280;26061;50.044;19.930;2023-03-23T01:24:13;60187.28;;;-145.63;100.00
40356;BME280;26061;50.044;19.930;2023-03-23T01:27:37;60187.28;;;-145.63;100.00
40356;BME280;26061;50.044;19.930;2023-03-23T01:30:37;60187.28;;;-145.63;100.00
40356;BME280;26061;50.044;19.930;2023-03-23T01:34:01;60187.28;;;-145.63;100.00
40356;BME280;26061;50.044;19.930;2023-03-23T01:37:26;60187.28;;;-145.63;100.00
40356;BME280;26061;50.044;19.930;2023-03-23T01:40:51;60187.28;;;-145.63;100.00
40356;BME280;26061;50.044;19.930;2023-03-23T01:47:40;60187.28;;;-145.63;100.00
40356;BME280;26061;50.044;19.930;2023-03-23T01:51:12;60187.28;;;-145.63;100.00
40356;BME280;26061;50.044;19.930;2023-03-23T01:54:41;60187.28;;;-145.63;100.00
40356;BME280;26061;50.044;19.930;2023-03-23T01:58:13;60187.28;;;-145.63;100.00
40356;BME280;26061;50.044;19.930;2023-03-23T02:01:39;60187.28;;;-145.63;100.00
40356;BME280;26061;50.044;19.930;2023-03-23T02:05:13;60187.28;;;-145.63;100.00
40356;BME280;26061;50.044;19.930;2023-03-23T02:08:37;60187.28;;;-145.63;100.00
40356;BME280;26061;50.044;19.930;2023-03-23T02:12:20;60187.28;;;-145.63;100.00
40356;BME280;26061;50.044;19.930;2023-03-23T02:18:27;60187.28;;;-145.63;100.00
40356;BME280;26061;50.044;19.930;2023-03-23T02:36:44;60187.28;;;-145.63;100.00
40356;BME280;26061;50.044;19.930;2023-03-23T02:40:30;60187.28;;;-145.63;100.00
40356;BME280;26061;50.044;19.930;2023-03-23T02:43:57;60187.28;;;-145.63;100.00
40356;BME280;26061;50.044;19.930;2023-03-23T02:47:23;60187.28;;;-145.63;100.00
40356;BME280;26061;50.044;19.930;2023-03-23T02:50:51;60187.28;;;-145.63;100.00
40356;BME280;26061;50.044;19.930;2023-03-23T02:53:23;60187.28;;;-145.63;100.00
40356;BME280;26061;50.044;19.930;2023-03-23T02:56:49;60187.28;;;-145.63;100.00
40356;BME280;26061;50.044;19.930;2023-03-23T03:00:15;60187.28;;;-145.63;100.00
40356;BME280;26061;50.044;19.930;2023-03-23T03:03:45;60187.28;;;-145.63;100.00
40356;BME280;26061;50.044;19.930;2023-03-23T03:07:23;60187.28;;;-145.63;100.00
40356;BME280;26061;50.044;19.930;2023-03-23T03:11:09;60187.28;;;-145.63;100.00
40356;BME280;26061;50.044;19.930;2023-03-23T03:14:58;60187.28;;;-145.63;100.00
40356;BME280;26061;50.044;19.930;2023-03-23T03:18:28;60187.28;;;-145.63;100.00
40356;BME280;26061;50.044;19.930;2023-03-23T03:21:59;60187.28;;;-145.63;100.00
40356;BME280;26061;50.044;19.930;2023-03-23T03:25:27;60187.28;;;-145.63;100.00
40356;BME280;26061;50.044;19.930;2023-03-23T03:28:53;60187.28;;;-145.63;100.00
40356;BME280;26061;50.044;19.930;2023-03-23T03:32:24;60187.28;;;-145.63;100.00
40356;BME280;26061;50.044;19.930;2023-03-23T03:35:50;60187.28;;;-145.63;100.00
40356;BME280;26061;50.044;19.930;2023-03-23T03:39:15;60187.28;;;-145.63;100.00
40356;BME280;26061;50.044;19.930;2023-03-23T03:42:42;60187.28;;;-145.63;100.00
40356;BME280;26061;50.044;19.930;2023-03-23T03:46:08;60187.28;;;-145.63;100.00
40356;BME280;26061;50.044;19.930;2023-03-23T03:49:32;60187.28;;;-145.63;100.00
40356;BME280;26061;50.044;19.930;2023-03-23T03:52:57;60187.28;;;-145.63;100.00
40356;BME280;26061;50.044;19.930;2023-03-23T03:56:22;60187.28;;;-145.63;100.00
40356;BME280;26061;50.044;19.930;2023-03-23T03:59:47;60187.28;;;-145.63;100.00
40356;BME280;26061;50.044;19.930;2023-03-23T04:03:11;60187.28;;;-145.63;100.00
40356;BME280;26061;50.044;19.930;2023-03-23T04:06:35;60187.28;;;-145.63;100.00
40356;BME280;26061;50.044;19.930;2023-03-23T04:10:02;60187.28;;;-145.63;100.00
40356;BME280;26061;50.044;19.930;2023-03-23T04:13:28;60187.28;;;-145.63;100.00
40356;BME280;26061;50.044;19.930;2023-03-23T04:16:52;60187.28;;;-145.63;100.00
40356;BME280;26061;50.044;19.930;2023-03-23T04:20:21;60187.28;;;-145.63;100.00
40356;BME280;26061;50.044;19.930;2023-03-23T04:23:46;60187.28;;;-145.63;100.00
40356;BME280;26061;50.044;19.930;2023-03-23T04:27:10;60187.28;;;-145.63;100.00
40356;BME280;26061;50.044;19.930;2023-03-23T04:30:37;60187.28;;;-145.63;100.00
40356;BME280;26061;50.044;19.930;2023-03-23T04:34:01;60187.28;;;-145.63;100.00
40356;BME280;26061;50.044;19.930;2023-03-23T04:37:26;60187.28;;;-145.63;100.00
40356;BME280;26061;50.044;19.930;2023-03-23T04:40:56;60187.28;;;-145.63;100.00
40356;BME280;26061;50.044;19.930;2023-03-23T04:44:21;60187.28;;;-145.63;100.00
40356;BME280;26061;50.044;19.930;2023-03-23T04:47:45;60187.28;;;-145.63;100.00
40356;BME280;26061;50.044;19.930;2023-03-23T04:51:17;60187.28;;;-145.63;100.00
40356;BME280;26061;50.044;19.930;2023-03-23T04:54:42;60187.28;;;-145.63;100.00
40356;BME280;26061;50.044;19.930;2023-03-23T04:58:06;60187.28;;;-145.63;100.00
40356;BME280;26061;50.044;19.930;2023-03-23T05:01:31;60187.28;;;-145.63;100.00
40356;BME280;26061;50.044;19.930;2023-03-23T05:04:57;60187.28;;;-145.63;100.00
40356;BME280;26061;50.044;19.930;2023-03-23T05:08:22;60187.28;;;-145.63;100.00
40356;BME280;26061;50.044;19.930;2023-03-23T05:11:52;60187.28;;;-145.63;100.00
40356;BME280;26061;50.044;19.930;2023-03-23T05:15:16;60187.28;;;-145.63;100.00
40356;BME280;26061;50.044;19.930;2023-03-23T05:18:40;60187.28;;;-145.63;100.00
40356;BME280;26061;50.044;19.930;2023-03-23T05:22:05;60187.28;;;-145.63;100.00
40356;BME280;26061;50.044;19.930;2023-03-23T05:25:29;60187.28;;;-145.63;100.00
40356;BME280;26061;50.044;19.930;2023-03-23T05:28:54;60187.28;;;-145.63;100.00
40356;BME280;26061;50.044;19.930;2023-03-23T05:32:18;60187.28;;;-145.63;100.00
40356;BME280;26061;50.044;19.930;2023-03-23T05:35:45;60187.28;;;-145.63;100.00
40356;BME280;26061;50.044;19.930;2023-03-23T05:39:11;60187.28;;;-145.63;100.00
40356;BME280;26061;50.044;19.930;2023-03-23T05:42:37;60187.28;;;-145.63;100.00
40356;BME280;26061;50.044;19.930;2023-03-23T05:46:02;60187.28;;;-145.63;100.00
40356;BME280;26061;50.044;19.930;2023-03-23T05:49:27;60187.28;;;-145.63;100.00
40356;BME280;26061;50.044;19.930;2023-03-23T05:52:51;60187.28;;;-145.63;100.00
40356;BME280;26061;50.044;19.930;2023-03-23T05:56:15;60187.28;;;-145.63;100.00
40356;BME280;26061;50.044;19.930;2023-03-23T05:59:39;60187.28;;;-145.63;100.00
40356;BME280;26061;50.044;19.930;2023-03-23T06:03:04;60187.28;;;-145.63;100.00
40356;BME280;26061;50.044;19.930;2023-03-23T06:06:28;60187.28;;;-145.63;100.00
40356;BME280;26061;50.044;19.930;2023-03-23T06:09:56;60187.28;;;-145.63;100.00
40356;BME280;26061;50.044;19.930;2023-03-23T06:13:21;60187.28;;;-145.63;100.00
40356;BME280;26061;50.044;19.930;2023-03-23T06:16:45;60187.28;;;-145.63;100.00
40356;BME280;26061;50.044;19.930;2023-03-23T06:20:10;60187.28;;;-145.63;100.00
40356;BME280;26061;50.044;19.930;2023-03-23T06:23:35;60187.28;;;-145.63;100.00
40356;BME280;26061;50.044;19.930;2023-03-23T06:27:03;60187.28;;;-145.63;100.00
40356;BME280;26061;50.044;19.930;2023-03-23T06:29:40;60187.28;;;-145.63;100.00
40356;BME280;26061;50.044;19.930;2023-03-23T06:33:04;60187.28;;;-145.63;100.00
40356;BME280;26061;50.044;19.930;2023-03-23T06:36:30;60187.28;;;-145.63;100.00
40356;BME280;26061;50.044;19.930;2023-03-23T06:39:54;60187.28;;;-145.63;100.00
40356;BME280;26061;50.044;19.930;2023-03-23T06:43:20;60187.28;;;-145.63;100.00
40356;BME280;26061;50.044;19.930;2023-03-23T06:46:24;60187.28;;;-145.63;100.00
40356;BME280;26061;50.044;19.930;2023-03-23T06:49:13;60187.28;;;-145.63;100.00
40356;BME280;26061;50.044;19.930;2023-03-23T06:52:20;60187.28;;;-145.63;100.00
40356;BME280;26061;50.044;19.930;2023-03-23T06:55:44;60187.28;;;-145.63;100.00
40356;BME280;26061;50.044;19.930;2023-03-23T06:58:25;60187.28;;;-145.63;100.00
40356;BME280;26061;50.044;19.930;2023-03-23T07:01:10;60187.28;;;-145.63;100.00
40356;BME280;26061;50.044;19.930;2023-03-23T07:03:36;60187.28;;;-145.63;100.00
40356;BME280;26061;50.044;19.930;2023-03-23T07:06:03;60187.28;;;-145.63;100.00
40356;BME280;26061;50.044;19.930;2023-03-23T07:09:27;60187.28;;;-145.63;100.00
40356;BME280;26061;50.044;19.930;2023-03-23T07:12:51;60187.28;;;-145.63;100.00
40356;BME280;26061;50.044;19.930;2023-03-23T07:16:15;60187.28;;;-145.63;100.00
40356;BME280;26061;50.044;19.930;2023-03-23T07:19:40;60187.28;;;-145.63;100.00
40356;BME280;26061;50.044;19.930;2023-03-23T07:23:05;60187.28;;;-145.63;100.00
40356;BME280;26061;50.044;19.930;2023-03-23T07:26:30;60187.28;;;-145.63;100.00
40356;BME280;26061;50.044;19.930;2023-03-23T07:28:59;60187.28;;;-145.63;100.00
40356;BME280;26061;50.044;19.930;2023-03-23T07:31:25;60187.28;;;-145.63;100.00
40356;BME280;26061;50.044;19.930;2023-03-23T07:34:32;60187.28;;;-145.63;100.00
40356;BME280;26061;50.044;19.930;2023-03-23T07:37:56;60187.28;;;-145.63;100.00
40356;BME280;26061;50.044;19.930;2023-03-23T07:40:22;60187.28;;;-145.63;100.00
40356;BME280;26061;50.044;19.930;2023-03-23T07:43:00;60187.28;;;-145.63;100.00
40356;BME280;26061;50.044;19.930;2023-03-23T07:46:24;60187.28;;;-145.63;100.00
40356;BME280;26061;50.044;19.930;2023-03-23T07:49:49;60187.28;;;-145.63;100.00
40356;BME280;26061;50.044;19.930;2023-03-23T07:53:13;60187.28;;;-145.63;100.00
40356;BME280;26061;50.044;19.930;2023-03-23T07:56:38;60187.28;;;-145.63;100.00
40356;BME280;26061;50.044;19.930;2023-03-23T07:59:06;60187.28;;;-145.63;100.00
40356;BME280;26061;50.044;19.930;2023-03-23T08:01:32;60187.28;;;-145.63;100.00
40356;BME280;26061;50.044;19.930;2023-03-23T08:03:58;60187.28;;;-145.63;100.00
40356;BME280;26061;50.044;19.930;2023-03-23T08:06:26;98030.28;;;23.29;34.43
40356;BME280;26061;50.044;19.930;2023-03-23T08:08:51;98029.88;;;24.19;33.16
40356;BME280;26061;50.044;19.930;2023-03-23T08:11:18;98027.63;;;24.28;32.67
40356;BME280;26061;50.044;19.930;2023-03-23T08:13:45;98031.88;;;25.27;31.30
40356;BME280;26061;50.044;19.930;2023-03-23T08:16:11;98033.22;;;23.63;32.70
40356;BME280;26061;50.044;19.930;2023-03-23T08:18:37;98023.28;;;24.27;32.11
40356;BME280;26061;50.044;19.930;2023-03-23T08:21:06;98014.78;;;25.26;31.18
40356;BME280;26061;50.044;19.930;2023-03-23T08:23:35;98027.31;;;23.07;33.65
40356;BME280;26061;50.044;19.930;2023-03-23T08:26:03;98026.09;;;22.61;34.78
40356;BME280;26061;50.044;19.930;2023-03-23T08:28:32;98018.47;;;22.28;35.91
40356;BME280;26061;50.044;19.930;2023-03-23T08:30:58;98026.44;;;21.61;36.85
40356;BME280;26061;50.044;19.930;2023-03-23T08:33:24;98029.41;;;19.81;39.47
40356;BME280;26061;50.044;19.930;2023-03-23T08:35:57;98019.19;;;20.03;40.29
40356;BME280;26061;50.044;19.930;2023-03-23T08:38:23;98014.94;;;20.65;39.37
40356;BME280;26061;50.044;19.930;2023-03-23T08:40:50;98014.41;;;20.88;38.81
40356;BME280;26061;50.044;19.930;2023-03-23T08:43:17;98005.06;;;20.59;39.14
40356;BME280;26061;50.044;19.930;2023-03-23T08:45:43;98009.66;;;21.77;37.48
40356;BME280;26061;50.044;19.930;2023-03-23T08:48:09;98018.22;;;21.74;36.85
40356;BME280;26061;50.044;19.930;2023-03-23T08:50:35;98014.31;;;21.01;37.88
40356;BME280;26061;50.044;19.930;2023-03-23T08:53:01;98019.44;;;20.78;38.12
40356;BME280;26061;50.044;19.930;2023-03-23T08:55:28;98008.56;;;20.91;38.76
40356;BME280;26061;50.044;19.930;2023-03-23T08:57:54;98010.88;;;21.13;37.50
40356;BME280;26061;50.044;19.930;2023-03-23T09:00:21;98010.34;;;20.40;39.18
40356;BME280;26061;50.044;19.930;2023-03-23T09:02:51;98012.97;;;20.47;39.42
40356;BME280;26061;50.044;19.930;2023-03-23T09:05:20;98021.84;;;20.09;40.02
40356;BME280;26061;50.044;19.930;2023-03-23T09:07:49;98017.16;;;21.06;38.86
40356;BME280;26061;50.044;19.930;2023-03-23T09:10:16;97998.06;;;23.51;34.42
40356;BME280;26061;50.044;19.930;2023-03-23T09:12:43;97996.03;;;24.05;33.83
40356;BME280;26061;50.044;19.930;2023-03-23T09:15:11;98007.19;;;22.31;35.24
40356;BME280;26061;50.044;19.930;2023-03-23T09:17:45;98003.22;;;21.35;37.24
40356;BME280;26061;50.044;19.930;2023-03-23T09:20:13;97994.78;;;19.97;40.02
40356;BME280;26061;50.044;19.930;2023-03-23T09:22:40;98003.09;;;20.73;38.65
40356;BME280;26061;50.044;19.930;2023-03-23T09:25:12;97982.03;;;21.82;36.83
40356;BME280;26061;50.044;19.930;2023-03-23T09:27:38;97977.13;;;22.27;35.45
40356;BME280;26061;50.044;19.930;2023-03-23T09:30:14;97976.53;;;23.44;33.82
40356;BME280;26061;50.044;19.930;2023-03-23T09:32:40;97975.34;;;24.16;33.30
40356;BME280;26061;50.044;19.930;2023-03-23T09:35:08;97965.75;;;24.66;32.14
40356;BME280;26061;50.044;19.930;2023-03-23T09:37:35;97970.81;;;27.43;28.40
40356;BME280;26061;50.044;19.930;2023-03-23T09:40:03;97961.97;;;27.73;27.45
40356;BME280;26061;50.044;19.930;2023-03-23T09:50:29;97977.72;;;25.71;29.49
40356;BME280;26061;50.044;19.930;2023-03-23T09:53:21;97981.63;;;25.80;29.25
40356;BME280;26061;50.044;19.930;2023-03-23T09:55:48;97959.72;;;26.31;29.23
40356;BME280;26061;50.044;19.930;2023-03-23T10:00:52;97937.44;;;26.56;28.45
40356;BME280;26061;50.044;19.930;2023-03-23T10:03:27;97956.44;;;28.15;27.34
40356;BME280;26061;50.044;19.930;2023-03-23T10:05:56;97959.81;;;27.27;26.93
40356;BME280;26061;50.044;19.930;2023-03-23T10:08:24;97952.38;;;26.31;28.81
40356;BME280;26061;50.044;19.930;2023-03-23T10:11:12;97961.94;;;27.63;27.00
40356;BME280;26061;50.044;19.930;2023-03-23T10:16:24;97950.41;;;25.61;29.18
40356;BME280;26061;50.044;19.930;2023-03-23T10:19:27;97940.19;;;24.78;30.61
40356;BME280;26061;50.044;19.930;2023-03-23T10:21:56;97952.16;;;25.89;29.33
40356;BME280;26061;50.044;19.930;2023-03-23T10:24:43;97946.66;;;23.27;33.12
40356;BME280;26061;50.044;19.930;2023-03-23T10:27:42;97944.16;;;21.51;36.00
40356;BME280;26061;50.044;19.930;2023-03-23T10:33:08;97939.72;;;21.39;36.68
40356;BME280;26061;50.044;19.930;2023-03-23T10:35:55;97946.47;;;20.54;37.39
40356;BME280;26061;50.044;19.930;2023-03-23T10:38:25;97970.28;;;19.54;38.16
40356;BME280;26061;50.044;19.930;2023-03-23T10:41:00;97945.81;;;19.75;39.20
40356;BME280;26061;50.044;19.930;2023-03-23T10:43:27;97945.94;;;19.29;39.89
40356;BME280;26061;50.044;19.930;2023-03-23T10:46:02;97963.25;;;19.46;40.16
40356;BME280;26061;50.044;19.930;2023-03-23T10:48:35;97968.31;;;18.90;40.55
40356;BME280;26061;50.044;19.930;2023-03-23T10:51:04;97967.25;;;19.10;40.92
40356;BME280;26061;50.044;19.930;2023-03-23T10:53:42;97965.81;;;18.81;41.34
40356;BME280;26061;50.044;19.930;2023-03-23T10:56:42;97964.16;;;18.87;41.61
40356;BME280;26061;50.044;19.930;2023-03-23T10:59:26;97972.78;;;18.62;41.63
40356;BME280;26061;50.044;19.930;2023-03-23T11:01:54;97988.25;;;18.47;42.09
40356;BME280;26061;50.044;19.930;2023-03-23T11:04:22;97958.28;;;18.30;42.20
40356;BME280;26061;50.044;19.930;2023-03-23T11:06:51;97956.91;;;18.94;41.95
40356;BME280;26061;50.044;19.930;2023-03-23T11:09:21;97955.44;;;19.31;40.93
40356;BME280;26061;50.044;19.930;2023-03-23T11:11:52;97964.28;;;19.39;40.40
40356;BME280;26061;50.044;19.930;2023-03-23T11:14:34;97956.41;;;20.47;38.75
40356;BME280;26061;50.044;19.930;2023-03-23T11:17:04;97945.00;;;19.62;40.21
40356;BME280;26061;50.044;19.930;2023-03-23T11:19:34;97978.09;;;19.62;39.91
40356;BME280;26061;50.044;19.930;2023-03-23T11:24:32;97952.84;;;19.63;40.39
40356;BME280;26061;50.044;19.930;2023-03-23T11:26:59;97974.38;;;19.63;40.57
40356;BME280;26061;50.044;19.930;2023-03-23T11:29:27;97957.44;;;19.49;40.15
40356;BME280;26061;50.044;19.930;2023-03-23T11:34:42;97984.19;;;19.18;41.22
40356;BME280;26061;50.044;19.930;2023-03-23T11:37:14;97964.34;;;19.19;40.69
40356;BME280;26061;50.044;19.930;2023-03-23T11:40:02;97954.44;;;19.97;40.18
40356;BME280;26061;50.044;19.930;2023-03-23T11:42:45;97972.16;;;20.12;39.24
40356;BME280;26061;50.044;19.930;2023-03-23T11:45:18;97958.69;;;20.57;39.01
40356;BME280;26061;50.044;19.930;2023-03-23T11:56:28;97951.53;;;20.94;38.04
40356;BME280;26061;50.044;19.930;2023-03-23T11:58:56;97957.13;;;20.68;38.31
40356;BME280;26061;50.044;19.930;2023-03-23T12:15:36;97964.38;;;19.97;42.01
40356;BME280;26061;50.044;19.930;2023-03-23T12:18:15;97960.31;;;20.51;40.23
40356;BME280;26061;50.044;19.930;2023-03-23T12:20:57;97961.69;;;20.35;40.36
40356;BME280;26061;50.044;19.930;2023-03-23T12:23:45;97942.25;;;20.90;39.64
40356;BME280;26061;50.044;19.930;2023-03-23T12:26:23;97954.25;;;20.31;40.09
40356;BME280;26061;50.044;19.930;2023-03-23T12:34:10;97956.31;;;21.79;38.37
40356;BME280;26061;50.044;19.930;2023-03-23T12:39:48;97958.53;;;20.77;39.99
40356;BME280;26061;50.044;19.930;2023-03-23T12:42:30;97956.63;;;20.46;40.92
40356;BME280;26061;50.044;19.930;2023-03-23T12:47:40;97960.75;;;20.16;41.38
40356;BME280;26061;50.044;19.930;2023-03-23T12:50:21;97945.91;;;20.39;40.95
40356;BME280;26061;50.044;19.930;2023-03-23T12:55:52;97944.19;;;19.68;42.45
40356;BME280;26061;50.044;19.930;2023-03-23T12:58:26;97945.34;;;19.85;42.18
40356;BME280;26061;50.044;19.930;2023-03-23T13:00:58;97943.59;;;19.46;43.04
40356;BME280;26061;50.044;19.930;2023-03-23T13:04:07;97945.34;;;19.92;42.22
40356;BME280;26061;50.044;19.930;2023-03-23T13:06:38;97938.16;;;20.17;42.11
40356;BME280;26061;50.044;19.930;2023-03-23T13:09:19;97941.03;;;20.23;42.03
40356;BME280;26061;50.044;19.930;2023-03-23T13:11:48;97922.09;;;20.04;42.01
40356;BME280;26061;50.044;19.930;2023-03-23T13:20:16;97933.91;;;20.35;41.17
40356;BME280;26061;50.044;19.930;2023-03-23T13:22:58;97942.13;;;21.03;39.56
40356;BME280;26061;50.044;19.930;2023-03-23T13:28:17;97927.84;;;20.14;42.27
40356;BME280;26061;50.044;19.930;2023-03-23T13:31:11;97925.66;;;19.98;42.58
40356;BME280;26061;50.044;19.930;2023-03-23T13:33:38;97925.56;;;19.60;43.16
40356;BME280;26061;50.044;19.930;2023-03-23T13:36:13;97926.06;;;19.37;43.76
40356;BME280;26061;50.044;19.930;2023-03-23T13:38:48;97929.84;;;19.87;42.92
40356;BME280;26061;50.044;19.930;2023-03-23T13:41:16;97931.56;;;20.45;42.37
40356;BME280;26061;50.044;19.930;2023-03-23T13:43:43;97927.97;;;19.88;42.71
40356;BME280;26061;50.044;19.930;2023-03-23T13:48:49;97937.03;;;19.93;43.31
40356;BME280;26061;50.044;19.930;2023-03-23T13:51:36;97925.69;;;19.85;42.70
40356;BME280;26061;50.044;19.930;2023-03-23T14:02:20;97925.81;;;20.03;43.68
40356;BME280;26061;50.044;19.930;2023-03-23T14:04:42;97938.63;;;19.69;43.54
40356;BME280;26061;50.044;19.930;2023-03-23T14:07:12;97937.84;;;19.42;43.11
40356;BME280;26061;50.044;19.930;2023-03-23T14:09:43;97935.13;;;19.49;44.50
40356;BME280;26061;50.044;19.930;2023-03-23T14:12:28;97929.41;;;19.90;44.07
40356;BME280;26061;50.044;19.930;2023-03-23T14:15:01;97934.63;;;19.79;43.99
40356;BME280;26061;50.044;19.930;2023-03-23T14:17:31;97927.47;;;20.04;43.92
40356;BME280;26061;50.044;19.930;2023-03-23T14:19:59;97924.19;;;20.02;42.61
40356;BME280;26061;50.044;19.930;2023-03-23T14:22:28;97933.25;;;20.08;43.45
40356;BME280;26061;50.044;19.930;2023-03-23T14:25:15;97937.78;;;20.14;43.01
40356;BME280;26061;50.044;19.930;2023-03-23T14:27:42;97932.19;;;19.57;44.32
40356;BME280;26061;50.044;19.930;2023-03-23T14:30:20;97930.94;;;19.73;43.67
40356;BME280;26061;50.044;19.930;2023-03-23T14:32:47;97930.84;;;19.93;42.69
40356;BME280;26061;50.044;19.930;2023-03-23T14:35:22;97935.78;;;19.96;42.81
40356;BME280;26061;50.044;19.930;2023-03-23T14:37:48;97940.91;;;19.46;43.69
40356;BME280;26061;50.044;19.930;2023-03-23T14:40:16;97921.91;;;19.41;44.31
40356;BME280;26061;50.044;19.930;2023-03-23T14:42:43;97940.31;;;19.30;44.78
40356;BME280;26061;50.044;19.930;2023-03-23T14:45:19;97932.69;;;19.34;44.90
40356;BME280;26061;50.044;19.930;2023-03-23T14:47:48;97934.06;;;19.70;44.30
40356;BME280;26061;50.044;19.930;2023-03-23T14:50:42;97940.34;;;20.02;44.34
40356;BME280;26061;50.044;19.930;2023-03-23T14:55:47;97950.81;;;19.72;44.49
40356;BME280;26061;50.044;19.930;2023-03-23T14:58:15;97953.28;;;19.60;44.10
40356;BME280;26061;50.044;19.930;2023-03-23T15:01:06;97946.66;;;19.63;43.72
40356;BME280;26061;50.044;19.930;2023-03-23T15:03:36;97946.84;;;19.74;44.12
40356;BME280;26061;50.044;19.930;2023-03-23T15:06:09;97941.25;;;19.76;43.98
40356;BME280;26061;50.044;19.930;2023-03-23T15:08:36;97945.41;;;19.65;44.02
40356;BME280;26061;50.044;19.930;2023-03-23T15:13:45;97952.47;;;19.66;44.45
40356;BME280;26061;50.044;19.930;2023-03-23T15:16:19;97951.19;;;19.75;44.71
40356;BME280;26061;50.044;19.930;2023-03-23T15:23:51;97941.75;;;19.53;45.54
40356;BME280;26061;50.044;19.930;2023-03-23T15:26:31;97944.63;;;19.58;45.54
40356;BME280;26061;50.044;19.930;2023-03-23T15:29:23;97937.19;;;19.47;45.78
40356;BME280;26061;50.044;19.930;2023-03-23T15:31:52;97927.72;;;19.24;46.49
40356;BME280;26061;50.044;19.930;2023-03-23T15:36:55;97940.09;;;19.39;46.53
40356;BME280;26061;50.044;19.930;2023-03-23T15:39:21;97946.31;;;19.32;46.55
40356;BME280;26061;50.044;19.930;2023-03-23T15:41:49;97939.31;;;19.18;46.52
40356;BME280;26061;50.044;19.930;2023-03-23T15:44:34;97936.00;;;19.16;46.90
40356;BME280;26061;50.044;19.930;2023-03-23T15:47:12;97938.53;;;18.98;47.56
40356;BME280;26061;50.044;19.930;2023-03-23T15:49:39;97938.53;;;18.98;47.08
40356;BME280;26061;50.044;19.930;2023-03-23T15:52:09;97943.50;;;19.01;47.93
40356;BME280;26061;50.044;19.930;2023-03-23T15:54:35;97944.31;;;18.95;47.75
40356;BME280;26061;50.044;19.930;2023-03-23T15:57:01;97945.16;;;18.95;48.11
40356;BME280;26061;50.044;19.930;2023-03-23T15:59:27;97948.66;;;18.89;47.96
40356;BME280;26061;50.044;19.930;2023-03-23T16:01:53;97948.25;;;18.85;47.97
40356;BME280;26061;50.044;19.930;2023-03-23T16:04:19;97944.13;;;18.90;47.99
40356;BME280;26061;50.044;19.930;2023-03-23T16:06:45;97946.81;;;18.76;48.34
40356;BME280;26061;50.044;19.930;2023-03-23T16:09:14;97945.13;;;18.88;48.74
40356;BME280;26061;50.044;19.930;2023-03-23T16:11:40;97952.16;;;18.83;48.60
40356;BME280;26061;50.044;19.930;2023-03-23T16:14:06;97954.88;;;18.76;48.61
40356;BME280;26061;50.044;19.930;2023-03-23T16:16:45;97955.47;;;18.92;48.83
40356;BME280;26061;50.044;19.930;2023-03-23T16:19:12;97947.22;;;18.80;48.94
40356;BME280;26061;50.044;19.930;2023-03-23T16:21:39;97952.97;;;18.83;48.78
40356;BME280;26061;50.044;19.930;2023-03-23T16:24:06;97946.59;;;18.84;49.09
40356;BME280;26061;50.044;19.930;2023-03-23T16:26:33;97952.34;;;18.68;49.91
40356;BME280;26061;50.044;19.930;2023-03-23T16:28:58;97957.31;;;18.71;49.58
40356;BME280;26061;50.044;19.930;2023-03-23T16:31:24;97955.84;;;18.55;49.80
40356;BME280;26061;50.044;19.930;2023-03-23T16:33:50;97961.41;;;18.54;49.57